createdAt,value
2023-03-12T00:01:14.614Z,0.88
2023-03-12T00:03:43.552Z,1.00
2023-03-12T00:06:11.190Z,0.80
2023-03-12T00:08:37.914Z,1.30
2023-03-12T00:11:11.662Z,1.70
2023-03-12T00:13:38.687Z,1.50
2023-03-12T00:16:14.071Z,1.40
2023-03-12T00:18:43.439Z,1.50
2023-03-12T00:21:12.743Z,1.35
2023-03-12T00:23:39.287Z,1.35
2023-03-12T00:26:13.613Z,1.38
2023-03-12T00:28:42.589Z,1.27
2023-03-12T00:31:22.664Z,1.42
2023-03-12T00:33:52.184Z,1.30
2023-03-12T00:36:19.577Z,1.30
2023-03-12T00:38:51.091Z,1.55
2023-03-12T00:41:19.953Z,1.35
2023-03-12T00:43:47.034Z,1.40
2023-03-12T00:46:20.790Z,1.00
2023-03-12T00:48:49.867Z,1.33
2023-03-12T00:51:19.147Z,1.15
2023-03-12T00:53:45.695Z,1.30
2023-03-12T00:58:38.843Z,1.30
2023-03-12T01:01:05.584Z,1.23
2023-03-12T01:06:00.861Z,6.90
2023-03-12T01:08:27.342Z,4.95
2023-03-12T01:10:56.319Z,3.33
2023-03-12T01:13:28.073Z,4.30
2023-03-12T01:15:59.430Z,12.20
2023-03-12T01:18:28.486Z,5.82
2023-03-12T01:20:57.377Z,3.17
2023-03-12T01:23:26.255Z,2.28
2023-03-12T01:25:55.567Z,1.75
2023-03-12T01:28:22.953Z,1.63
2023-03-12T01:30:53.968Z,1.27
2023-03-12T01:33:23.206Z,1.52
2023-03-12T01:35:55.129Z,1.10
2023-03-12T01:38:24.176Z,1.23
2023-03-12T01:40:50.908Z,1.25
2023-03-12T01:45:58.824Z,1.42
2023-03-12T01:48:28.080Z,6.60
2023-03-12T01:50:57.512Z,3.58
2023-03-12T01:53:26.855Z,2.33
2023-03-12T01:55:55.862Z,3.72
2023-03-12T01:58:22.658Z,3.38
2023-03-12T02:00:49.139Z,2.60
2023-03-12T02:03:15.942Z,2.10
2023-03-12T02:05:43.664Z,2.15
2023-03-12T02:08:11.442Z,1.73
2023-03-12T02:10:42.929Z,2.20
2023-03-12T02:13:09.815Z,2.25
2023-03-12T02:15:39.942Z,2.90
2023-03-12T02:18:08.476Z,3.08
2023-03-12T02:20:53.729Z,2.50
2023-03-12T02:23:26.164Z,2.20
2023-03-12T02:25:56.503Z,2.40
2023-03-12T02:28:28.052Z,2.45
2023-03-12T02:30:57.465Z,2.50
2023-03-12T02:33:28.871Z,2.33
2023-03-12T02:35:55.733Z,2.10
2023-03-12T02:38:25.746Z,2.78
2023-03-12T02:40:56.497Z,2.72
2023-03-12T02:43:22.964Z,2.58
2023-03-12T02:45:51.821Z,2.20
2023-03-12T02:48:22.683Z,2.65
2023-03-12T02:50:49.185Z,2.30
2023-03-12T02:53:15.880Z,2.08
2023-03-12T02:58:11.401Z,1.23
2023-03-12T03:00:40.324Z,2.22
2023-03-12T03:03:06.866Z,1.50
2023-03-12T03:05:33.647Z,2.30
2023-03-12T03:10:27.356Z,2.15
2023-03-12T03:12:54.696Z,1.73
2023-03-12T03:15:23.789Z,1.52
2023-03-12T03:17:50.272Z,1.73
2023-03-12T03:20:20.043Z,1.70
2023-03-12T03:22:51.318Z,1.70
2023-03-12T03:25:23.624Z,1.50
2023-03-12T03:27:52.491Z,2.95
2023-03-12T03:30:21.357Z,2.60
2023-03-12T03:32:50.574Z,1.50
2023-03-12T03:35:18.016Z,1.73
2023-03-12T03:37:47.275Z,2.15
2023-03-12T03:40:20.872Z,1.90
2023-03-12T03:42:48.106Z,1.17
2023-03-12T03:45:19.791Z,1.30
2023-03-12T03:47:46.414Z,1.15
2023-03-12T03:50:17.336Z,1.23
2023-03-12T03:52:46.167Z,1.20
2023-03-12T03:55:15.370Z,1.23
2023-03-12T03:57:42.073Z,1.13
2023-03-12T04:00:13.121Z,0.73
2023-03-12T04:02:44.714Z,0.80
2023-03-12T04:05:13.112Z,1.00
2023-03-12T04:07:39.881Z,0.80
2023-03-12T04:10:09.939Z,0.80
2023-03-12T04:12:43.685Z,0.60
2023-03-12T04:15:10.430Z,0.70
2023-03-12T04:17:37.070Z,0.98
2023-03-12T04:20:07.181Z,0.93
2023-03-12T04:22:36.722Z,0.65
2023-03-12T04:25:07.327Z,1.00
2023-03-12T04:27:34.541Z,1.10
2023-03-12T04:30:01.168Z,0.90
2023-03-12T04:32:30.134Z,0.73
2023-03-12T04:34:56.683Z,0.60
2023-03-12T04:37:30.800Z,0.70
2023-03-12T04:39:59.782Z,0.77
2023-03-12T04:42:28.653Z,0.90
2023-03-12T04:44:55.618Z,0.60
2023-03-12T04:47:22.180Z,0.73
2023-03-12T04:49:48.613Z,0.85
2023-03-12T04:52:19.820Z,1.08
2023-03-12T04:54:48.117Z,0.90
2023-03-12T04:57:14.972Z,1.55
2023-03-12T04:59:46.398Z,2.08
2023-03-12T05:02:12.938Z,1.63
2023-03-12T05:04:42.885Z,1.58
2023-03-12T05:07:09.890Z,1.00
2023-03-12T05:12:05.469Z,1.45
2023-03-12T05:14:34.634Z,3.83
2023-03-12T05:17:05.255Z,3.22
2023-03-12T05:19:31.836Z,2.92
2023-03-12T05:22:01.322Z,2.85
2023-03-12T05:24:31.493Z,2.13
2023-03-12T05:26:58.359Z,2.00
2023-03-12T05:29:29.602Z,2.65
2023-03-12T05:31:56.350Z,3.10
2023-03-12T05:36:54.852Z,3.05
2023-03-12T05:39:27.504Z,2.75
2023-03-12T05:41:59.668Z,2.10
2023-03-12T05:44:29.127Z,2.85
2023-03-12T05:46:57.776Z,1.60
2023-03-12T05:49:27.909Z,2.08
2023-03-12T05:51:58.575Z,1.60
2023-03-12T05:54:25.632Z,0.90
2023-03-12T05:56:56.018Z,0.45
2023-03-12T05:59:24.185Z,0.52
2023-03-12T06:01:52.214Z,0.75
2023-03-12T06:04:18.938Z,0.57
2023-03-12T06:06:49.044Z,0.45
2023-03-12T06:09:20.574Z,0.80
2023-03-12T06:11:52.258Z,0.90
2023-03-12T06:14:21.391Z,0.80
2023-03-12T06:16:48.817Z,1.05
2023-03-12T06:19:18.079Z,0.82
2023-03-12T06:21:50.444Z,2.92
2023-03-12T06:24:19.369Z,3.22
2023-03-12T06:26:51.968Z,2.95
2023-03-12T06:29:18.445Z,2.97
2023-03-12T06:31:48.237Z,2.97
2023-03-12T06:34:19.431Z,3.15
2023-03-12T06:36:46.291Z,2.28
2023-03-12T06:39:13.204Z,1.20
2023-03-12T06:41:41.457Z,1.70
2023-03-12T06:44:08.113Z,1.83
2023-03-12T06:46:39.378Z,1.67
2023-03-12T06:49:05.941Z,1.58
2023-03-12T06:51:32.596Z,2.58
2023-03-12T06:56:29.183Z,9.05
2023-03-12T06:59:00.397Z,4.32
2023-03-12T07:01:26.850Z,3.10
2023-03-12T07:03:53.503Z,2.45
2023-03-12T07:06:21.333Z,2.03
2023-03-12T07:08:47.875Z,2.55
2023-03-12T07:11:17.672Z,3.20
2023-03-12T07:13:44.346Z,1.30
2023-03-12T07:16:17.802Z,1.08
2023-03-12T07:18:44.299Z,2.30
2023-03-12T07:21:16.662Z,1.50
2023-03-12T07:23:43.118Z,1.33
2023-03-12T07:26:13.850Z,2.35
2023-03-12T07:28:42.905Z,0.80
2023-03-12T07:31:14.314Z,0.90
2023-03-12T07:33:46.434Z,1.52
2023-03-12T07:36:17.920Z,2.00
2023-03-12T07:38:44.519Z,1.27
2023-03-12T07:41:13.095Z,1.05
2023-03-12T07:43:40.353Z,0.70
2023-03-12T07:46:09.183Z,0.90
2023-03-12T07:48:35.685Z,0.93
2023-03-12T07:51:02.162Z,0.52
2023-03-12T07:53:31.050Z,1.30
2023-03-12T07:56:00.061Z,0.55
2023-03-12T07:58:29.108Z,0.60
2023-03-12T08:00:56.266Z,0.43
2023-03-12T08:03:25.889Z,0.98
2023-03-12T08:05:59.114Z,1.00
2023-03-12T08:08:26.239Z,0.90
2023-03-12T08:10:55.546Z,0.52
2023-03-12T08:13:23.958Z,0.55
2023-03-12T08:15:53.990Z,0.82
2023-03-12T08:18:24.699Z,0.40
2023-03-12T08:20:56.581Z,0.65
2023-03-12T08:23:23.099Z,0.50
2023-03-12T08:25:52.184Z,0.70
2023-03-12T08:28:19.067Z,0.70
2023-03-12T08:30:48.952Z,0.40
2023-03-12T08:33:18.095Z,1.70
2023-03-12T08:35:47.244Z,0.70
2023-03-12T08:38:18.625Z,0.35
2023-03-12T08:40:45.051Z,0.60
2023-03-12T08:43:11.602Z,0.75
2023-03-12T08:48:08.813Z,0.80
2023-03-12T08:50:35.400Z,0.80
2023-03-12T08:55:28.268Z,0.85
2023-03-12T09:00:21.351Z,0.70
2023-03-12T09:02:47.936Z,0.50
2023-03-12T09:07:43.458Z,0.60
2023-03-12T09:10:12.336Z,0.65
2023-03-12T09:12:39.153Z,3.00
2023-03-12T09:15:08.578Z,1.20
2023-03-12T09:17:35.217Z,0.82
2023-03-12T09:20:07.017Z,0.80
2023-03-12T09:22:37.025Z,0.77
2023-03-12T09:25:07.560Z,0.77
2023-03-12T09:27:46.498Z,0.65
2023-03-12T09:30:16.961Z,0.38
2023-03-12T09:32:46.116Z,0.80
2023-03-12T09:35:16.952Z,0.55
2023-03-12T09:37:49.987Z,0.47
2023-03-12T09:40:23.868Z,0.38
2023-03-12T09:43:02.305Z,1.15
2023-03-12T09:45:33.217Z,0.63
2023-03-12T09:48:09.120Z,0.50
2023-03-12T09:50:43.922Z,0.95
2023-03-12T09:53:33.088Z,0.60
2023-03-12T09:56:09.109Z,0.70
2023-03-12T09:58:40.233Z,0.70
2023-03-12T10:01:28.294Z,0.63
2023-03-12T10:03:57.742Z,0.65
2023-03-12T10:06:38.734Z,2.80
2023-03-12T10:09:23.689Z,0.50
2023-03-12T10:11:55.702Z,0.43
2023-03-12T10:14:31.006Z,0.70
2023-03-12T10:17:05.259Z,0.50
2023-03-12T10:19:33.832Z,0.52
2023-03-12T10:22:00.302Z,0.88
2023-03-12T10:24:32.421Z,0.50
2023-03-12T10:27:01.915Z,0.90
2023-03-12T10:29:34.354Z,1.05
2023-03-12T10:32:04.141Z,0.50
2023-03-12T10:34:37.690Z,1.30
2023-03-12T10:37:17.291Z,1.30
2023-03-12T10:39:46.035Z,1.02
2023-03-12T10:42:21.717Z,1.35
2023-03-12T10:44:53.092Z,0.52
2023-03-12T10:47:25.518Z,0.50
2023-03-12T10:49:56.885Z,0.50
2023-03-12T10:52:23.525Z,0.50
2023-03-12T10:54:51.465Z,0.35
2023-03-12T10:57:18.763Z,0.50
2023-03-12T10:59:52.786Z,0.40
2023-03-12T11:02:30.817Z,0.30
2023-03-12T11:04:58.039Z,0.40
2023-03-12T11:07:31.729Z,0.73
2023-03-12T11:10:14.334Z,3.80
2023-03-12T11:12:51.920Z,1.02
2023-03-12T11:15:29.123Z,0.63
2023-03-12T11:18:16.577Z,0.40
2023-03-12T11:20:48.048Z,0.55
2023-03-12T11:23:18.415Z,0.52
2023-03-12T11:25:58.235Z,0.40
2023-03-12T11:28:28.231Z,0.40
2023-03-12T11:30:59.934Z,1.83
2023-03-12T11:33:28.827Z,0.82
2023-03-12T11:35:58.347Z,0.43
2023-03-12T11:39:05.071Z,0.52
2023-03-12T11:41:56.270Z,0.45
2023-03-12T11:44:34.990Z,0.38
2023-03-12T11:47:24.194Z,0.38
2023-03-12T11:49:55.825Z,0.50
2023-03-12T11:52:36.986Z,0.35
2023-03-12T11:55:08.175Z,0.43
2023-03-12T11:57:45.216Z,0.40
2023-03-12T12:00:14.109Z,0.35
2023-03-12T12:02:55.099Z,0.50
2023-03-12T12:05:24.130Z,0.40
2023-03-12T12:10:37.683Z,0.38
2023-03-12T12:13:04.148Z,0.60
2023-03-12T12:15:32.952Z,0.52
2023-03-12T12:20:37.327Z,0.40
2023-03-12T12:23:14.700Z,0.45
2023-03-12T12:25:51.776Z,0.60
2023-03-12T12:28:30.540Z,0.50
2023-03-12T12:31:06.147Z,0.50
2023-03-12T12:33:47.823Z,0.57
2023-03-12T12:36:16.840Z,0.60
2023-03-12T12:39:06.090Z,0.60
2023-03-12T12:41:37.708Z,0.80
2023-03-12T12:44:16.760Z,1.02
2023-03-12T12:46:51.204Z,0.60
2023-03-12T12:49:25.978Z,0.52
2023-03-12T12:52:01.835Z,1.05
2023-03-12T12:54:31.433Z,0.90
2023-03-12T12:57:07.365Z,1.00
2023-03-12T12:59:40.014Z,0.80
2023-03-12T13:02:15.343Z,0.80
2023-03-12T13:04:44.242Z,0.60
2023-03-12T13:07:16.082Z,0.98
2023-03-12T13:09:43.852Z,1.15
2023-03-12T13:12:14.860Z,0.77
2023-03-12T13:14:42.571Z,1.20
2023-03-12T13:17:23.499Z,0.90
2023-03-12T13:20:00.937Z,0.52
2023-03-12T13:22:37.966Z,0.55
2023-03-12T13:25:05.120Z,0.82
2023-03-12T13:27:34.063Z,0.60
2023-03-12T13:30:21.534Z,1.40
2023-03-12T13:32:48.078Z,2.53
2023-03-12T13:35:14.520Z,0.93
2023-03-12T13:37:50.544Z,0.70
2023-03-12T13:40:31.337Z,0.50
2023-03-12T13:43:09.904Z,0.60
2023-03-12T13:45:45.431Z,0.60
2023-03-12T13:48:19.010Z,0.40
2023-03-12T13:50:56.868Z,0.50
2023-03-12T13:53:28.297Z,0.52
2023-03-12T13:56:09.587Z,0.60
2023-03-12T13:58:50.344Z,0.93
2023-03-12T14:01:18.990Z,0.55
2023-03-12T14:03:49.633Z,0.40
2023-03-12T14:06:24.768Z,1.58
2023-03-12T14:09:09.699Z,1.80
2023-03-12T14:11:56.179Z,0.43
2023-03-12T14:16:52.512Z,0.60
2023-03-12T14:19:22.428Z,0.80
2023-03-12T14:21:50.023Z,0.88
2023-03-12T14:24:25.875Z,0.88
2023-03-12T14:26:55.332Z,0.85
2023-03-12T14:29:30.955Z,0.80
2023-03-12T14:32:02.214Z,1.00
2023-03-12T14:34:30.520Z,1.08
2023-03-12T14:37:20.150Z,1.08
2023-03-12T14:39:50.807Z,2.10
2023-03-12T14:42:31.837Z,1.15
2023-03-12T14:45:13.303Z,1.23
2023-03-12T14:47:43.871Z,1.48
2023-03-12T14:50:17.149Z,1.00
2023-03-12T14:52:43.852Z,1.20
2023-03-12T14:55:19.100Z,2.25
2023-03-12T14:57:48.704Z,1.20
2023-03-12T15:00:26.089Z,1.40
2023-03-12T15:02:55.970Z,1.20
2023-03-12T15:05:22.655Z,0.70
2023-03-12T15:07:52.010Z,0.90
2023-03-12T15:10:18.650Z,1.02
2023-03-12T15:12:45.980Z,0.77
2023-03-12T15:15:27.998Z,0.88
2023-03-12T15:17:56.992Z,0.73
2023-03-12T15:20:26.211Z,0.80
2023-03-12T15:22:53.171Z,0.70
2023-03-12T15:25:27.686Z,0.85
2023-03-12T15:28:25.204Z,0.90
2023-03-12T15:31:09.986Z,0.88
2023-03-12T15:33:39.167Z,1.02
2023-03-12T15:36:17.580Z,0.85
2023-03-12T15:38:45.677Z,0.77
2023-03-12T15:41:21.964Z,0.70
2023-03-12T15:43:57.349Z,0.68
2023-03-12T15:46:27.337Z,1.17
2023-03-12T15:48:55.617Z,0.90
2023-03-12T15:51:28.125Z,0.55
2023-03-12T15:54:16.961Z,0.50
2023-03-12T15:56:43.472Z,0.70
2023-03-12T15:59:18.420Z,0.88
2023-03-12T16:01:46.365Z,0.60
2023-03-12T16:04:13.246Z,0.85
2023-03-12T16:06:42.553Z,1.05
2023-03-12T16:09:11.738Z,0.70
2023-03-12T16:11:40.483Z,0.70
2023-03-12T16:14:15.313Z,0.60
2023-03-12T16:16:44.264Z,0.75
2023-03-12T16:19:21.388Z,0.75
2023-03-12T16:21:52.765Z,0.73
2023-03-12T16:24:21.524Z,0.77
2023-03-12T16:26:52.677Z,0.88
2023-03-12T16:29:19.627Z,0.93
2023-03-12T16:31:54.314Z,0.70
2023-03-12T16:34:23.557Z,1.65
2023-03-12T16:36:50.693Z,1.35
2023-03-12T16:39:19.807Z,1.88
2023-03-12T16:41:46.797Z,1.60
2023-03-12T16:44:17.545Z,1.20
2023-03-12T16:46:49.225Z,1.70
2023-03-12T16:49:20.065Z,1.50
2023-03-12T16:51:46.961Z,1.23
2023-03-12T16:54:16.104Z,1.00
2023-03-12T16:56:46.238Z,1.02
2023-03-12T16:59:23.349Z,1.30
2023-03-12T17:01:49.951Z,1.25
2023-03-12T17:04:16.614Z,1.10
2023-03-12T17:06:45.594Z,1.10
2023-03-12T17:09:14.259Z,1.40
2023-03-12T17:11:43.621Z,1.75
2023-03-12T17:14:22.018Z,1.98
2023-03-12T17:16:51.623Z,1.27
2023-03-12T17:19:23.642Z,1.92
2023-03-12T17:21:50.216Z,1.50
2023-03-12T17:24:19.004Z,1.25
2023-03-12T17:26:48.721Z,1.83
2023-03-12T17:29:17.586Z,2.10
2023-03-12T17:31:44.086Z,6.53
2023-03-12T17:36:41.917Z,3.47
2023-03-12T17:39:08.483Z,4.65
2023-03-12T17:41:37.302Z,2.20
2023-03-12T17:44:03.845Z,2.10
2023-03-12T17:48:59.871Z,1.98
2023-03-12T17:51:28.911Z,1.75
2023-03-12T17:53:57.738Z,1.25
2023-03-12T17:58:57.956Z,1.20
2023-03-12T18:01:28.638Z,1.13
2023-03-12T18:03:57.518Z,1.58
2023-03-12T18:06:24.486Z,1.40
2023-03-12T18:08:51.036Z,1.80
2023-03-12T18:11:17.552Z,2.50
2023-03-12T18:16:10.471Z,2.80
2023-03-12T18:21:06.130Z,1.67
2023-03-12T18:23:35.082Z,1.63
2023-03-12T18:26:01.625Z,1.60
2023-03-12T18:28:32.630Z,2.05
2023-03-12T18:30:59.164Z,1.85
2023-03-12T18:35:59.229Z,1.83
2023-03-12T18:38:28.669Z,1.27
2023-03-12T18:41:08.787Z,1.02
2023-03-12T18:43:40.327Z,1.15
2023-03-12T18:46:12.924Z,0.93
2023-03-12T18:48:43.981Z,0.80
2023-03-12T18:51:13.846Z,1.00
2023-03-12T18:56:09.198Z,1.30
2023-03-12T18:58:35.687Z,1.27
2023-03-12T19:01:02.202Z,1.50
2023-03-12T19:03:33.741Z,2.60
2023-03-12T19:06:07.295Z,2.28
2023-03-12T19:08:39.346Z,2.05
2023-03-12T19:11:10.188Z,1.35
2023-03-12T19:13:36.829Z,1.23
2023-03-12T19:18:29.920Z,1.30
2023-03-12T19:20:59.025Z,1.20
2023-03-12T19:23:25.541Z,1.30
2023-03-12T19:28:18.528Z,1.38
2023-03-12T19:33:16.688Z,1.15
2023-03-12T19:35:43.292Z,0.90
2023-03-12T19:40:38.776Z,0.82
2023-03-12T19:43:05.355Z,0.73
2023-03-12T19:45:37.078Z,0.85
2023-03-12T19:48:06.224Z,1.42
2023-03-12T19:50:32.788Z,0.93
2023-03-12T19:55:30.724Z,0.75
2023-03-12T20:00:26.243Z,0.70
2023-03-12T20:02:54.932Z,0.93
2023-03-12T20:05:24.251Z,0.70
2023-03-12T20:07:53.088Z,0.70
2023-03-12T20:10:19.727Z,0.60
2023-03-12T20:12:50.882Z,0.93
2023-03-12T20:15:19.624Z,0.70
2023-03-12T20:17:48.702Z,0.90
2023-03-12T20:20:17.865Z,1.10
2023-03-12T20:22:46.754Z,1.15
2023-03-12T20:25:15.442Z,0.93
2023-03-12T20:30:08.651Z,0.70
2023-03-12T20:32:35.409Z,0.98
2023-03-12T20:35:04.372Z,0.77
2023-03-12T20:37:36.542Z,0.65
2023-03-12T20:40:03.148Z,0.60
2023-03-12T20:42:32.260Z,1.00
2023-03-12T20:45:01.276Z,0.90
2023-03-12T20:47:36.449Z,0.80
2023-03-12T20:50:03.272Z,0.93
2023-03-12T20:52:29.830Z,1.80
2023-03-12T20:54:56.294Z,2.38
2023-03-12T20:57:25.337Z,1.70
2023-03-12T20:59:54.018Z,0.60
2023-03-12T21:02:23.367Z,1.23
2023-03-12T21:04:52.586Z,1.15
2023-03-12T21:07:21.608Z,1.02
2023-03-12T21:09:50.536Z,0.88
2023-03-12T21:12:17.033Z,0.82
2023-03-12T21:14:43.553Z,0.95
2023-03-12T21:17:13.583Z,0.80
2023-03-12T21:19:42.921Z,1.13
2023-03-12T21:22:09.575Z,0.70
2023-03-12T21:24:41.203Z,1.00
2023-03-12T21:27:13.076Z,1.10
2023-03-12T21:29:39.662Z,1.42
2023-03-12T21:32:08.676Z,0.80
2023-03-12T21:34:39.801Z,0.93
2023-03-12T21:37:08.717Z,0.90
2023-03-12T21:39:35.365Z,0.77
2023-03-12T21:44:28.317Z,0.80
2023-03-12T21:46:54.815Z,1.00
2023-03-12T21:49:21.364Z,0.70
2023-03-12T21:51:47.983Z,0.73
2023-03-12T21:56:41.770Z,0.90
2023-03-12T21:59:10.753Z,0.75
2023-03-12T22:01:39.806Z,0.68
2023-03-12T22:04:06.412Z,1.00
2023-03-12T22:06:33.048Z,1.15
2023-03-12T22:11:32.890Z,0.75
2023-03-12T22:14:06.158Z,0.90
2023-03-12T22:16:35.111Z,0.70
2023-03-12T22:19:01.572Z,1.10
2023-03-12T22:21:30.401Z,1.00
2023-03-12T22:24:00.574Z,1.10
2023-03-12T22:26:27.429Z,0.80
2023-03-12T22:29:01.165Z,1.08
2023-03-12T22:31:30.260Z,0.60
2023-03-12T22:33:57.229Z,1.02
2023-03-12T22:36:23.944Z,0.95
2023-03-12T22:38:56.213Z,0.60
2023-03-12T22:41:22.695Z,1.10
2023-03-12T22:43:49.752Z,0.88
2023-03-12T22:46:16.936Z,0.98
2023-03-12T22:48:46.530Z,0.70
2023-03-12T22:51:17.826Z,0.70
2023-03-12T22:53:46.667Z,1.00
2023-03-12T22:56:16.091Z,0.68
2023-03-12T22:58:44.980Z,0.60
2023-03-12T23:01:16.060Z,0.70
2023-03-12T23:03:47.753Z,0.70
2023-03-12T23:06:17.685Z,0.70
2023-03-12T23:08:46.301Z,0.80
2023-03-12T23:11:14.436Z,0.82
2023-03-12T23:13:44.646Z,0.80
2023-03-12T23:16:12.678Z,0.73
2023-03-12T23:18:39.287Z,1.00
2023-03-12T23:21:07.376Z,0.85
2023-03-12T23:23:34.037Z,1.13
2023-03-12T23:26:00.626Z,0.75
2023-03-12T23:31:03.983Z,0.65
2023-03-12T23:33:33.392Z,0.75
2023-03-12T23:36:03.900Z,1.00
2023-03-12T23:38:32.881Z,0.90
2023-03-12T23:41:08.022Z,0.70
2023-03-12T23:43:37.049Z,1.10
2023-03-12T23:46:06.787Z,0.82
2023-03-12T23:48:36.179Z,0.75
2023-03-12T23:51:05.772Z,0.88
2023-03-12T23:53:34.858Z,0.85
2023-03-12T23:56:02.115Z,0.57
2023-03-12T23:58:30.897Z,0.85
